sensor_id;sensor_type;location;lat;lon;timestamp;pressure;altitude;pressure_sealevel;temperature;humidity
76973;BME280;65907;53.640;10.050;2023-09-19T00:02:02;100008.66;;;24.78;52.86
76973;BME280;65907;53.640;10.050;2023-09-19T00:04:32;100017.22;;;24.80;52.73
76973;BME280;65907;53.640;10.050;2023-09-19T00:06:57;100023.28;;;24.81;52.69
76973;BME280;65907;53.640;10.050;2023-09-19T00:09:22;100030.38;;;24.80;52.56
76973;BME280;65907;53.640;10.050;2023-09-19T00:11:51;100038.44;;;24.79;52.70
76973;BME280;65907;53.640;10.050;2023-09-19T00:14:16;100041.06;;;24.79;52.57
76973;BME280;65907;53.640;10.050;2023-09-19T00:16:42;100038.44;;;24.79;52.48
76973;BME280;65907;53.640;10.050;2023-09-19T00:19:07;100047.13;;;24.79;52.59
76973;BME280;65907;53.640;10.050;2023-09-19T00:21:34;100036.59;;;24.79;52.59
76973;BME280;65907;53.640;10.050;2023-09-19T00:24:03;100032.00;;;24.81;52.48
76973;BME280;65907;53.640;10.050;2023-09-19T00:26:28;100025.28;;;24.79;52.63
76973;BME280;65907;53.640;10.050;2023-09-19T00:28:55;100025.91;;;24.81;52.46
76973;BME280;65907;53.640;10.050;2023-09-19T00:31:22;100023.63;;;24.77;52.63
76973;BME280;65907;53.640;10.050;2023-09-19T00:33:50;100025.13;;;24.80;52.70
76973;BME280;65907;53.640;10.050;2023-09-19T00:36:16;100021.66;;;24.80;52.46
76973;BME280;65907;53.640;10.050;2023-09-19T00:38:41;100031.53;;;24.77;52.65
76973;BME280;65907;53.640;10.050;2023-09-19T00:41:09;100028.56;;;24.72;52.51
76973;BME280;65907;53.640;10.050;2023-09-19T00:43:34;100023.66;;;24.69;52.74
76973;BME280;65907;53.640;10.050;2023-09-19T00:46:00;100023.94;;;24.74;52.65
76973;BME280;65907;53.640;10.050;2023-09-19T00:48:28;100027.25;;;24.76;52.42
76973;BME280;65907;53.640;10.050;2023-09-19T00:50:53;100026.59;;;24.74;52.50
76973;BME280;65907;53.640;10.050;2023-09-19T00:53:20;100038.25;;;24.72;52.79
76973;BME280;65907;53.640;10.050;2023-09-19T00:55:48;100038.88;;;24.74;52.55
76973;BME280;65907;53.640;10.050;2023-09-19T00:58:13;100043.84;;;24.77;52.35
76973;BME280;65907;53.640;10.050;2023-09-19T01:00:41;100047.47;;;24.76;52.69
76973;BME280;65907;53.640;10.050;2023-09-19T01:03:09;100046.97;;;24.72;52.50
76973;BME280;65907;53.640;10.050;2023-09-19T01:05:35;100055.34;;;24.76;52.47
76973;BME280;65907;53.640;10.050;2023-09-19T01:08:00;100053.03;;;24.73;52.42
76973;BME280;65907;53.640;10.050;2023-09-19T01:10:26;100057.97;;;24.76;52.45
76973;BME280;65907;53.640;10.050;2023-09-19T01:12:59;100062.44;;;24.75;52.26
76973;BME280;65907;53.640;10.050;2023-09-19T01:26:02;100058.81;;;24.68;52.37
76973;BME280;65907;53.640;10.050;2023-09-19T01:30:49;100069.78;;;24.72;52.48
76973;BME280;65907;53.640;10.050;2023-09-19T01:33:19;100069.00;;;24.71;52.48
76973;BME280;65907;53.640;10.050;2023-09-19T01:35:44;100064.88;;;24.69;52.67
76973;BME280;65907;53.640;10.050;2023-09-19T01:38:10;100067.34;;;24.70;52.52
76973;BME280;65907;53.640;10.050;2023-09-19T01:40:41;100070.78;;;24.71;52.34
76973;BME280;65907;53.640;10.050;2023-09-19T01:43:08;100068.66;;;24.74;52.53
76973;BME280;65907;53.640;10.050;2023-09-19T01:45:43;100078.03;;;24.69;52.41
76973;BME280;65907;53.640;10.050;2023-09-19T01:50:48;100083.28;;;24.69;52.40
76973;BME280;65907;53.640;10.050;2023-09-19T01:56:18;100084.13;;;24.69;52.35
76973;BME280;65907;53.640;10.050;2023-09-19T01:58:48;100076.38;;;24.68;52.45
76973;BME280;65907;53.640;10.050;2023-09-19T02:01:20;100080.00;;;24.67;52.54
76973;BME280;65907;53.640;10.050;2023-09-19T02:03:50;100069.00;;;24.63;52.37
76973;BME280;65907;53.640;10.050;2023-09-19T02:06:17;100078.34;;;24.66;52.43
76973;BME280;65907;53.640;10.050;2023-09-19T02:08:43;100069.34;;;24.68;52.26
76973;BME280;65907;53.640;10.050;2023-09-19T02:11:09;100073.91;;;24.66;52.46
76973;BME280;65907;53.640;10.050;2023-09-19T02:13:35;100081.63;;;24.68;52.58
76973;BME280;65907;53.640;10.050;2023-09-19T02:16:01;100078.19;;;24.67;52.24
76973;BME280;65907;53.640;10.050;2023-09-19T02:18:27;100072.91;;;24.67;52.38
76973;BME280;65907;53.640;10.050;2023-09-19T02:20:53;100084.44;;;24.66;52.46
76973;BME280;65907;53.640;10.050;2023-09-19T02:23:19;100083.97;;;24.62;52.51
76973;BME280;65907;53.640;10.050;2023-09-19T02:25:51;100088.03;;;24.65;52.26
76973;BME280;65907;53.640;10.050;2023-09-19T02:28:16;100101.72;;;24.60;52.45
76973;BME280;65907;53.640;10.050;2023-09-19T02:30:42;100098.09;;;24.61;52.32
76973;BME280;65907;53.640;10.050;2023-09-19T02:33:07;100098.91;;;24.62;52.41
76973;BME280;65907;53.640;10.050;2023-09-19T02:35:33;100113.69;;;24.63;52.40
76973;BME280;65907;53.640;10.050;2023-09-19T02:38:01;100112.03;;;24.62;52.49
76973;BME280;65907;53.640;10.050;2023-09-19T02:40:27;100101.38;;;24.63;52.44
76973;BME280;65907;53.640;10.050;2023-09-19T02:42:55;100111.22;;;24.61;52.62
76973;BME280;65907;53.640;10.050;2023-09-19T02:45:23;100108.25;;;24.65;52.32
76973;BME280;65907;53.640;10.050;2023-09-19T02:47:51;100112.69;;;24.64;52.17
76973;BME280;65907;53.640;10.050;2023-09-19T02:50:16;100101.38;;;24.63;52.32
76973;BME280;65907;53.640;10.050;2023-09-19T02:52:42;100114.66;;;24.62;52.42
76973;BME280;65907;53.640;10.050;2023-09-19T02:55:08;100111.38;;;24.60;52.42
76973;BME280;65907;53.640;10.050;2023-09-19T02:57:34;100117.94;;;24.64;52.25
76973;BME280;65907;53.640;10.050;2023-09-19T03:00:00;100114.66;;;24.62;52.39
76973;BME280;65907;53.640;10.050;2023-09-19T03:02:28;100123.53;;;24.61;52.33
76973;BME280;65907;53.640;10.050;2023-09-19T03:04:53;100127.47;;;24.65;52.19
76973;BME280;65907;53.640;10.050;2023-09-19T03:07:19;100124.84;;;24.65;52.21
76973;BME280;65907;53.640;10.050;2023-09-19T03:09:44;100128.81;;;24.61;52.43
76973;BME280;65907;53.640;10.050;2023-09-19T03:12:10;100118.94;;;24.63;52.61
76973;BME280;65907;53.640;10.050;2023-09-19T03:14:35;100121.56;;;24.63;52.23
76973;BME280;65907;53.640;10.050;2023-09-19T03:17:00;100125.38;;;24.60;52.20
76973;BME280;65907;53.640;10.050;2023-09-19T03:19:26;100128.97;;;24.59;52.20
76973;BME280;65907;53.640;10.050;2023-09-19T03:21:51;100137.66;;;24.60;52.26
76973;BME280;65907;53.640;10.050;2023-09-19T03:24:16;100128.00;;;24.60;52.08
76973;BME280;65907;53.640;10.050;2023-09-19T03:26:42;100129.13;;;24.58;52.20
76973;BME280;65907;53.640;10.050;2023-09-19T03:29:07;100137.34;;;24.63;52.14
76973;BME280;65907;53.640;10.050;2023-09-19T03:31:33;100134.25;;;24.59;52.14
76973;BME280;65907;53.640;10.050;2023-09-19T03:33:58;100134.88;;;24.61;52.16
76973;BME280;65907;53.640;10.050;2023-09-19T03:36:25;100143.44;;;24.63;52.11
76973;BME280;65907;53.640;10.050;2023-09-19T03:38:53;100140.31;;;24.60;52.16
76973;BME280;65907;53.640;10.050;2023-09-19T03:41:18;100142.94;;;24.60;52.42
76973;BME280;65907;53.640;10.050;2023-09-19T03:43:44;100150.66;;;24.61;52.21
76973;BME280;65907;53.640;10.050;2023-09-19T03:46:10;100142.59;;;24.63;52.08
76973;BME280;65907;53.640;10.050;2023-09-19T03:48:37;100144.56;;;24.61;52.21
76973;BME280;65907;53.640;10.050;2023-09-19T03:51:02;100147.38;;;24.59;52.28
76973;BME280;65907;53.640;10.050;2023-09-19T03:53:28;100141.13;;;24.60;52.26
76973;BME280;65907;53.640;10.050;2023-09-19T03:55:53;100143.59;;;24.62;52.08
76973;BME280;65907;53.640;10.050;2023-09-19T03:58:18;100151.81;;;24.59;52.16
76973;BME280;65907;53.640;10.050;2023-09-19T04:00:43;100149.19;;;24.59;52.38
76973;BME280;65907;53.640;10.050;2023-09-19T04:03:09;100149.81;;;24.61;52.13
76973;BME280;65907;53.640;10.050;2023-09-19T04:05:43;100149.03;;;24.60;52.00
76973;BME280;65907;53.640;10.050;2023-09-19T04:08:09;100148.53;;;24.57;52.24
76973;BME280;65907;53.640;10.050;2023-09-19T04:10:34;100152.78;;;24.58;52.08
76973;BME280;65907;53.640;10.050;2023-09-19T04:12:59;100152.63;;;24.59;52.02
76973;BME280;65907;53.640;10.050;2023-09-19T04:15:24;100162.31;;;24.59;52.05
76973;BME280;65907;53.640;10.050;2023-09-19T04:17:50;100156.91;;;24.60;51.93
76973;BME280;65907;53.640;10.050;2023-09-19T04:20:16;100162.50;;;24.57;51.93
76973;BME280;65907;53.640;10.050;2023-09-19T04:22:42;100156.72;;;24.62;51.96
76973;BME280;65907;53.640;10.050;2023-09-19T04:25:08;100157.72;;;24.61;51.96
76973;BME280;65907;53.640;10.050;2023-09-19T04:27:33;100157.38;;;24.64;51.85
76973;BME280;65907;53.640;10.050;2023-09-19T04:29:58;100149.50;;;24.64;51.81
76973;BME280;65907;53.640;10.050;2023-09-19T04:32:28;100161.50;;;24.58;51.99
76973;BME280;65907;53.640;10.050;2023-09-19T04:34:57;100158.88;;;24.58;51.93
76973;BME280;65907;53.640;10.050;2023-09-19T04:37:25;100168.56;;;24.58;52.05
76973;BME280;65907;53.640;10.050;2023-09-19T04:39:50;100171.03;;;24.59;51.83
76973;BME280;65907;53.640;10.050;2023-09-19T04:42:15;100177.28;;;24.58;52.02
76973;BME280;65907;53.640;10.050;2023-09-19T04:44:41;100181.38;;;24.61;51.67
76973;BME280;65907;53.640;10.050;2023-09-19T04:47:07;100185.63;;;24.62;51.82
76973;BME280;65907;53.640;10.050;2023-09-19T04:49:35;100189.91;;;24.63;51.70
76973;BME280;65907;53.640;10.050;2023-09-19T04:52:00;100200.44;;;24.63;51.85
76973;BME280;65907;53.640;10.050;2023-09-19T04:54:25;100206.66;;;24.62;51.83
76973;BME280;65907;53.640;10.050;2023-09-19T04:56:52;100200.44;;;24.55;50.96
76973;BME280;65907;53.640;10.050;2023-09-19T04:59:17;100200.78;;;24.52;50.61
76973;BME280;65907;53.640;10.050;2023-09-19T05:01:42;100210.97;;;24.46;50.34
76973;BME280;65907;53.640;10.050;2023-09-19T05:04:07;100215.53;;;24.44;50.04
76973;BME280;65907;53.640;10.050;2023-09-19T05:06:32;100210.28;;;24.44;50.27
76973;BME280;65907;53.640;10.050;2023-09-19T05:09:01;100212.91;;;24.44;49.53
76973;BME280;65907;53.640;10.050;2023-09-19T05:11:26;100214.06;;;24.42;49.44
76973;BME280;65907;53.640;10.050;2023-09-19T05:13:51;100214.56;;;24.45;49.40
76973;BME280;65907;53.640;10.050;2023-09-19T05:16:18;100203.72;;;24.40;49.47
76973;BME280;65907;53.640;10.050;2023-09-19T05:18:43;100210.28;;;24.36;48.78
76973;BME280;65907;53.640;10.050;2023-09-19T05:21:08;100217.84;;;24.31;48.49
76973;BME280;65907;53.640;10.050;2023-09-19T05:23:33;100227.50;;;24.30;48.20
76973;BME280;65907;53.640;10.050;2023-09-19T05:25:59;100233.94;;;24.28;48.12
76973;BME280;65907;53.640;10.050;2023-09-19T05:28:26;100234.91;;;24.27;47.91
76973;BME280;65907;53.640;10.050;2023-09-19T05:30:52;100231.78;;;24.23;47.82
76973;BME280;65907;53.640;10.050;2023-09-19T05:33:18;100241.63;;;24.21;47.46
76973;BME280;65907;53.640;10.050;2023-09-19T05:35:43;100244.41;;;24.19;48.78
76973;BME280;65907;53.640;10.050;2023-09-19T05:38:08;100241.97;;;24.26;47.79
76973;BME280;65907;53.640;10.050;2023-09-19T05:40:34;100250.00;;;24.16;47.33
76973;BME280;65907;53.640;10.050;2023-09-19T05:43:00;100249.00;;;24.17;46.60
76973;BME280;65907;53.640;10.050;2023-09-19T05:45:25;100247.69;;;24.13;46.64
76973;BME280;65907;53.640;10.050;2023-09-19T05:47:51;100253.91;;;24.12;46.93
76973;BME280;65907;53.640;10.050;2023-09-19T05:50:17;100273.94;;;24.13;46.79
76973;BME280;65907;53.640;10.050;2023-09-19T05:52:43;100281.50;;;24.08;46.61
76973;BME280;65907;53.640;10.050;2023-09-19T05:55:10;100286.44;;;24.11;46.18
76973;BME280;65907;53.640;10.050;2023-09-19T05:57:35;100295.16;;;24.12;46.40
76973;BME280;65907;53.640;10.050;2023-09-19T06:00:01;100303.16;;;24.10;46.37
76973;BME280;65907;53.640;10.050;2023-09-19T06:02:33;100301.84;;;24.06;45.62
76973;BME280;65907;53.640;10.050;2023-09-19T06:05:02;100300.34;;;24.03;45.73
76973;BME280;65907;53.640;10.050;2023-09-19T06:07:27;100302.16;;;24.03;45.74
76973;BME280;65907;53.640;10.050;2023-09-19T06:10:01;100301.19;;;24.04;45.62
76973;BME280;65907;53.640;10.050;2023-09-19T06:12:26;100302.00;;;24.04;45.66
76973;BME280;65907;53.640;10.050;2023-09-19T06:14:53;100298.56;;;24.12;45.54
76973;BME280;65907;53.640;10.050;2023-09-19T06:17:19;100307.44;;;24.11;45.27
76973;BME280;65907;53.640;10.050;2023-09-19T06:19:44;100305.31;;;24.15;45.37
76973;BME280;65907;53.640;10.050;2023-09-19T06:22:14;100309.47;;;24.26;45.57
76973;BME280;65907;53.640;10.050;2023-09-19T06:24:39;100304.06;;;24.36;45.47
76973;BME280;65907;53.640;10.050;2023-09-19T06:27:05;100309.00;;;24.39;45.04
76973;BME280;65907;53.640;10.050;2023-09-19T06:29:32;100288.31;;;24.44;45.19
76973;BME280;65907;53.640;10.050;2023-09-19T06:32:01;100292.59;;;24.45;45.10
76973;BME280;65907;53.640;10.050;2023-09-19T06:34:26;100297.50;;;24.48;44.94
76973;BME280;65907;53.640;10.050;2023-09-19T06:36:52;100295.53;;;24.50;45.11
76973;BME280;65907;53.640;10.050;2023-09-19T06:39:17;100285.69;;;24.52;44.93
76973;BME280;65907;53.640;10.050;2023-09-19T06:41:42;100287.84;;;24.57;44.81
76973;BME280;65907;53.640;10.050;2023-09-19T06:44:11;100279.94;;;24.57;44.82
76973;BME280;65907;53.640;10.050;2023-09-19T06:46:36;100281.25;;;24.53;44.70
76973;BME280;65907;53.640;10.050;2023-09-19T06:49:04;100280.94;;;24.64;44.74
76973;BME280;65907;53.640;10.050;2023-09-19T06:51:33;100284.22;;;24.66;45.07
76973;BME280;65907;53.640;10.050;2023-09-19T06:54:01;100286.34;;;24.71;44.80
76973;BME280;65907;53.640;10.050;2023-09-19T06:56:27;100296.53;;;24.74;44.63
76973;BME280;65907;53.640;10.050;2023-09-19T06:58:52;100301.34;;;24.79;45.03
76973;BME280;65907;53.640;10.050;2023-09-19T07:01:17;100311.72;;;24.80;44.93
76973;BME280;65907;53.640;10.050;2023-09-19T07:03:43;100316.47;;;24.85;44.71
76973;BME280;65907;53.640;10.050;2023-09-19T07:06:10;100323.22;;;24.87;44.92
76973;BME280;65907;53.640;10.050;2023-09-19T07:08:35;100316.13;;;24.88;45.10
76973;BME280;65907;53.640;10.050;2023-09-19T07:11:00;100314.00;;;24.91;44.66
76973;BME280;65907;53.640;10.050;2023-09-19T07:13:26;100313.84;;;24.93;45.23
76973;BME280;65907;53.640;10.050;2023-09-19T07:15:51;100317.78;;;24.89;44.25
76973;BME280;65907;53.640;10.050;2023-09-19T07:18:19;100318.94;;;24.86;44.04
76973;BME280;65907;53.640;10.050;2023-09-19T07:20:45;100311.22;;;24.93;44.70
76973;BME280;65907;53.640;10.050;2023-09-19T07:23:14;100320.75;;;24.86;43.63
76973;BME280;65907;53.640;10.050;2023-09-19T07:25:40;100338.81;;;24.89;43.73
76973;BME280;65907;53.640;10.050;2023-09-19T07:28:05;100330.94;;;24.89;43.70
76973;BME280;65907;53.640;10.050;2023-09-19T07:30:35;100328.00;;;24.92;43.79
76973;BME280;65907;53.640;10.050;2023-09-19T07:33:02;100329.13;;;24.98;43.93
76973;BME280;65907;53.640;10.050;2023-09-19T07:35:27;100343.44;;;24.95;44.05
76973;BME280;65907;53.640;10.050;2023-09-19T07:37:52;100348.69;;;24.95;44.14
76973;BME280;65907;53.640;10.050;2023-09-19T07:40:18;100344.91;;;24.98;44.56
76973;BME280;65907;53.640;10.050;2023-09-19T07:42:44;100351.31;;;25.03;44.55
76973;BME280;65907;53.640;10.050;2023-09-19T07:45:12;100353.31;;;25.01;45.05
76973;BME280;65907;53.640;10.050;2023-09-19T07:47:45;100351.00;;;24.98;44.88
76973;BME280;65907;53.640;10.050;2023-09-19T07:50:10;100362.97;;;25.01;44.61
76973;BME280;65907;53.640;10.050;2023-09-19T07:52:36;100360.34;;;25.01;44.85
76973;BME280;65907;53.640;10.050;2023-09-19T07:55:01;100360.88;;;24.96;45.17
76973;BME280;65907;53.640;10.050;2023-09-19T07:57:33;100366.28;;;24.86;44.39
76973;BME280;65907;53.640;10.050;2023-09-19T07:59:59;100366.59;;;24.91;44.72
76973;BME280;65907;53.640;10.050;2023-09-19T08:02:24;100358.88;;;24.90;44.25
76973;BME280;65907;53.640;10.050;2023-09-19T08:04:50;100361.19;;;24.93;44.08
76973;BME280;65907;53.640;10.050;2023-09-19T08:07:16;100366.09;;;24.88;44.27
76973;BME280;65907;53.640;10.050;2023-09-19T08:09:42;100373.34;;;24.86;44.58
76973;BME280;65907;53.640;10.050;2023-09-19T08:12:11;100364.97;;;24.90;44.38
76973;BME280;65907;53.640;10.050;2023-09-19T08:14:39;100358.88;;;24.90;44.42
76973;BME280;65907;53.640;10.050;2023-09-19T08:17:06;100358.88;;;24.90;43.88
76973;BME280;65907;53.640;10.050;2023-09-19T08:19:33;100358.72;;;24.83;44.23
76973;BME280;65907;53.640;10.050;2023-09-19T08:21:58;100357.72;;;24.92;44.26
76973;BME280;65907;53.640;10.050;2023-09-19T08:24:24;100366.28;;;24.95;44.31
76973;BME280;65907;53.640;10.050;2023-09-19T08:26:49;100370.56;;;24.87;44.37
76973;BME280;65907;53.640;10.050;2023-09-19T08:29:16;100381.88;;;24.88;44.49
76973;BME280;65907;53.640;10.050;2023-09-19T08:31:42;100364.78;;;24.84;44.58
76973;BME280;65907;53.640;10.050;2023-09-19T08:34:08;100363.16;;;24.83;44.37
76973;BME280;65907;53.640;10.050;2023-09-19T08:36:33;100358.72;;;24.83;44.18
76973;BME280;65907;53.640;10.050;2023-09-19T08:38:58;100374.31;;;24.85;44.24
76973;BME280;65907;53.640;10.050;2023-09-19T08:41:24;100372.84;;;24.90;44.24
76973;BME280;65907;53.640;10.050;2023-09-19T08:43:49;100362.81;;;24.86;44.21
76973;BME280;65907;53.640;10.050;2023-09-19T08:46:16;100365.13;;;24.81;44.15
76973;BME280;65907;53.640;10.050;2023-09-19T08:48:56;100377.94;;;24.84;43.92
76973;BME280;65907;53.640;10.050;2023-09-19T08:51:45;100374.50;;;24.83;43.83
76973;BME280;65907;53.640;10.050;2023-09-19T08:54:22;100386.47;;;24.86;44.06
76973;BME280;65907;53.640;10.050;2023-09-19T08:56:51;100377.94;;;24.84;44.11
76973;BME280;65907;53.640;10.050;2023-09-19T08:59:19;100376.78;;;24.78;44.13
76973;BME280;65907;53.640;10.050;2023-09-19T09:01:49;100370.69;;;24.77;43.95
76973;BME280;65907;53.640;10.050;2023-09-19T09:04:18;100394.19;;;24.79;44.13
76973;BME280;65907;53.640;10.050;2023-09-19T09:06:44;100383.84;;;24.77;43.68
76973;BME280;65907;53.640;10.050;2023-09-19T09:09:13;100390.91;;;24.77;44.08
76973;BME280;65907;53.640;10.050;2023-09-19T09:11:39;100382.03;;;24.78;44.08
76973;BME280;65907;53.640;10.050;2023-09-19T09:14:05;100387.66;;;24.83;43.73
76973;BME280;65907;53.640;10.050;2023-09-19T09:16:32;100395.19;;;24.78;44.14
76973;BME280;65907;53.640;10.050;2023-09-19T09:18:57;100400.63;;;24.76;43.75
76973;BME280;65907;53.640;10.050;2023-09-19T09:21:25;100393.22;;;24.80;43.71
76973;BME280;65907;53.640;10.050;2023-09-19T09:23:51;100396.63;;;24.72;44.39
76973;BME280;65907;53.640;10.050;2023-09-19T09:26:17;100387.63;;;24.75;43.81
76973;BME280;65907;53.640;10.050;2023-09-19T09:28:47;100392.41;;;24.80;43.44
76973;BME280;65907;53.640;10.050;2023-09-19T09:31:23;100405.50;;;24.71;43.08
76973;BME280;65907;53.640;10.050;2023-09-19T09:33:56;100395.66;;;24.73;43.31
76973;BME280;65907;53.640;10.050;2023-09-19T09:39:29;100391.69;;;24.69;43.78
76973;BME280;65907;53.640;10.050;2023-09-19T09:41:56;100396.34;;;24.75;43.51
76973;BME280;65907;53.640;10.050;2023-09-19T09:44:24;100388.72;;;24.64;42.72
76973;BME280;65907;53.640;10.050;2023-09-19T09:46:49;100399.72;;;24.68;43.43
76973;BME280;65907;53.640;10.050;2023-09-19T09:49:22;100406.84;;;24.75;43.18
76973;BME280;65907;53.640;10.050;2023-09-19T09:54:26;100413.72;;;24.68;43.50
76973;BME280;65907;53.640;10.050;2023-09-19T09:57:04;100418.66;;;24.71;43.78
76973;BME280;65907;53.640;10.050;2023-09-19T09:59:49;100419.78;;;24.69;42.75
76973;BME280;65907;53.640;10.050;2023-09-19T10:02:15;100410.59;;;24.73;42.82
76973;BME280;65907;53.640;10.050;2023-09-19T10:04:50;100415.84;;;24.73;43.14
76973;BME280;65907;53.640;10.050;2023-09-19T10:07:34;100409.13;;;24.70;43.36
76973;BME280;65907;53.640;10.050;2023-09-19T10:10:14;100419.78;;;24.69;43.59
76973;BME280;65907;53.640;10.050;2023-09-19T10:12:49;100403.69;;;24.63;43.01
76973;BME280;65907;53.640;10.050;2023-09-19T10:15:21;100411.25;;;24.67;43.32
76973;BME280;65907;53.640;10.050;2023-09-19T10:17:49;100419.63;;;24.70;43.07
76973;BME280;65907;53.640;10.050;2023-09-19T10:20:19;100411.38;;;24.65;43.08
76973;BME280;65907;53.640;10.050;2023-09-19T10:22:48;100407.13;;;24.64;43.15
76973;BME280;65907;53.640;10.050;2023-09-19T10:25:24;100404.66;;;24.71;43.01
76973;BME280;65907;53.640;10.050;2023-09-19T10:27:53;100415.84;;;24.65;43.20
76973;BME280;65907;53.640;10.050;2023-09-19T10:30:20;100412.38;;;24.64;43.21
76973;BME280;65907;53.640;10.050;2023-09-19T10:32:47;100405.47;;;24.63;43.46
76973;BME280;65907;53.640;10.050;2023-09-19T10:35:16;100403.81;;;24.62;43.37
76973;BME280;65907;53.640;10.050;2023-09-19T10:37:42;100408.41;;;24.60;42.43
76973;BME280;65907;53.640;10.050;2023-09-19T10:40:09;100395.28;;;24.60;43.02
76973;BME280;65907;53.640;10.050;2023-09-19T10:42:37;100402.50;;;24.58;43.17
76973;BME280;65907;53.640;10.050;2023-09-19T10:45:03;100400.34;;;24.53;43.08
76973;BME280;65907;53.640;10.050;2023-09-19T10:47:32;100400.00;;;24.48;41.36
76973;BME280;65907;53.640;10.050;2023-09-19T10:50:00;100402.13;;;24.44;41.47
76973;BME280;65907;53.640;10.050;2023-09-19T10:52:26;100397.03;;;24.43;41.46
76973;BME280;65907;53.640;10.050;2023-09-19T10:54:52;100405.91;;;24.42;41.31
76973;BME280;65907;53.640;10.050;2023-09-19T10:57:22;100416.41;;;24.42;41.85
76973;BME280;65907;53.640;10.050;2023-09-19T11:03:01;100404.59;;;24.46;41.58
76973;BME280;65907;53.640;10.050;2023-09-19T11:05:32;100407.88;;;24.48;42.13
76973;BME280;65907;53.640;10.050;2023-09-19T11:07:57;100401.81;;;24.47;41.90
76973;BME280;65907;53.640;10.050;2023-09-19T11:10:50;100404.47;;;24.47;41.98
76973;BME280;65907;53.640;10.050;2023-09-19T11:26:40;100393.94;;;24.47;42.01
76973;BME280;65907;53.640;10.050;2023-09-19T11:29:24;100388.03;;;24.45;42.16
76973;BME280;65907;53.640;10.050;2023-09-19T11:31:49;100389.50;;;24.48;41.51
76973;BME280;65907;53.640;10.050;2023-09-19T11:37:00;100390.81;;;24.44;41.98
76973;BME280;65907;53.640;10.050;2023-09-19T11:39:26;100381.94;;;24.45;41.51
76973;BME280;65907;53.640;10.050;2023-09-19T11:41:52;100389.81;;;24.45;41.93
76973;BME280;65907;53.640;10.050;2023-09-19T11:44:31;100388.03;;;24.45;41.78
76973;BME280;65907;53.640;10.050;2023-09-19T11:46:58;100385.88;;;24.41;41.35
76973;BME280;65907;53.640;10.050;2023-09-19T11:49:28;100394.25;;;24.44;42.13
76973;BME280;65907;53.640;10.050;2023-09-19T11:52:01;100378.47;;;24.44;42.28
76973;BME280;65907;53.640;10.050;2023-09-19T11:54:30;100390.94;;;24.42;41.96
76973;BME280;65907;53.640;10.050;2023-09-19T11:56:57;100391.78;;;24.43;41.92
76973;BME280;65907;53.640;10.050;2023-09-19T11:59:23;100396.06;;;24.44;41.64
76973;BME280;65907;53.640;10.050;2023-09-19T12:01:56;100382.91;;;24.44;41.39
76973;BME280;65907;53.640;10.050;2023-09-19T12:04:34;100391.94;;;24.41;41.56
76973;BME280;65907;53.640;10.050;2023-09-19T12:07:02;100400.00;;;24.40;40.90
76973;BME280;65907;53.640;10.050;2023-09-19T12:09:27;100402.63;;;24.40;41.46
76973;BME280;65907;53.640;10.050;2023-09-19T12:11:55;100385.88;;;24.41;41.25
76973;BME280;65907;53.640;10.050;2023-09-19T12:14:23;100387.66;;;24.40;41.47
76973;BME280;65907;53.640;10.050;2023-09-19T12:16:58;100389.16;;;24.43;41.15
76973;BME280;65907;53.640;10.050;2023-09-19T12:19:23;100392.09;;;24.40;41.80
76973;BME280;65907;53.640;10.050;2023-09-19T12:21:55;100402.44;;;24.41;41.45
76973;BME280;65907;53.640;10.050;2023-09-19T12:24:22;100402.94;;;24.37;41.33
76973;BME280;65907;53.640;10.050;2023-09-19T12:26:51;100402.09;;;24.36;40.69
76973;BME280;65907;53.640;10.050;2023-09-19T12:29:21;100399.16;;;24.39;41.37
76973;BME280;65907;53.640;10.050;2023-09-19T12:31:47;100405.72;;;24.35;41.05
76973;BME280;65907;53.640;10.050;2023-09-19T12:34:15;100387.00;;;24.38;40.87
76973;BME280;65907;53.640;10.050;2023-09-19T12:36:41;100392.25;;;24.38;41.49
76973;BME280;65907;53.640;10.050;2023-09-19T12:39:06;100387.97;;;24.37;41.15
76973;BME280;65907;53.640;10.050;2023-09-19T12:41:34;100387.66;;;24.40;41.01
76973;BME280;65907;53.640;10.050;2023-09-19T12:44:01;100392.44;;;24.37;41.64
76973;BME280;65907;53.640;10.050;2023-09-19T12:46:27;100391.44;;;24.38;41.37
76973;BME280;65907;53.640;10.050;2023-09-19T12:49:16;100386.81;;;24.31;40.49
76973;BME280;65907;53.640;10.050;2023-09-19T12:51:42;100384.03;;;24.33;40.65
76973;BME280;65907;53.640;10.050;2023-09-19T12:54:08;100375.94;;;24.26;40.76
76973;BME280;65907;53.640;10.050;2023-09-19T12:56:42;100374.31;;;24.33;40.76
76973;BME280;65907;53.640;10.050;2023-09-19T12:59:11;100376.16;;;24.33;40.79
76973;BME280;65907;53.640;10.050;2023-09-19T13:01:38;100359.38;;;24.26;40.76
76973;BME280;65907;53.640;10.050;2023-09-19T13:04:18;100363.66;;;24.35;40.51
76973;BME280;65907;53.640;10.050;2023-09-19T13:06:47;100365.66;;;24.41;40.66
76973;BME280;65907;53.640;10.050;2023-09-19T13:09:14;100370.09;;;24.41;41.23
76973;BME280;65907;53.640;10.050;2023-09-19T13:11:40;100363.22;;;24.48;41.13
76973;BME280;65907;53.640;10.050;2023-09-19T13:16:53;100366.03;;;24.55;41.53
76973;BME280;65907;53.640;10.050;2023-09-19T13:22:04;100363.41;;;24.55;42.53
76973;BME280;65907;53.640;10.050;2023-09-19T13:24:30;100357.47;;;24.53;42.58
76973;BME280;65907;53.640;10.050;2023-09-19T13:26:58;100351.91;;;24.47;40.97
76973;BME280;65907;53.640;10.050;2023-09-19T13:29:25;100350.41;;;24.53;40.47
76973;BME280;65907;53.640;10.050;2023-09-19T13:31:53;100343.88;;;24.57;39.98